Ana Sayfa
METAR-TAF:

METAR-TAF

Havaalanları :

Smith Field

Siloam Springs, Arkansas, Amerika Birleşik Devletleri

Enlem: 36-12N, Boylam: 094-29W, yükseklik: 300 m

Güncel hava durumu gözlemi

Rapor saat 02:56 UTC de 50 dakika önce yapıldı.
Rüzgar batı/kuzeybatıdan 17 kt ve 22 kt'a kadar ani rüzgarlar
Sıcaklık 9°C
Nem 49%
Basınç 1021 hPa
Görüş mesafesi: 16.1 km
3600 ft yükseklikte az bulutlu
5000 ft yükseklikte parçalı bulutlu
7000 ft yükseklikte çok bulutlu
hafif yağmur

METAR: KSLG 280256Z AUTO 30017G22KT 10SM -RA FEW036 SCT050 OVC070 09/M01 A3016 RMK AO2 RAB44 SLP219 P0000 60000 T00891006 53003 TSNO $

Saat: 21:46 (03:46 UTC)


TAF: eksik

4.000'den fazla havaalanı için hava durumu gözlemleri ve tahminleri (METAR ve TAF raporları).

Kullanılabilir istasyonlar harita üzerinde sarı ve kırmızı noktalarla gösterilir.

İstasyonun adını görmek için fareyi noktanın üzerinde gezdirin.

Sonrasında hava gözlem ve tahminlerini görmek için tıklayın.

Haritayı değiştirmek için: yaklaştırmak için siyah artı işaretli yeşil düğmeye ve uzaklaştırmak için de eksi işaretli düğmeye hızla tıklayın; bitişik haritalar için yeşil okları kullanın.


METAR-TAF: